Time;durP1;ratioP1;P1;durP2;ratioP2;P2;SDS_P1;SDS_P2;PMS_P1;PMS_P2;Temp;Humidity;BMP_temperature;BMP_pressure;BME280_temperature;BME280_humidity;BME280_pressure;Samples;Min_cycle;Max_cycle;Signal;HPM_P1;HPM_P2
2024/04/20 00:01:01;;;;;;;3.50;3.20;;;6.50;99.90;;;;;;5452359;26;19995;-73
2024/04/20 00:03:28;;;;;;;5.85;3.95;;;6.40;99.90;;;;;;5452956;26;19995;-73
2024/04/20 00:05:55;;;;;;;4.13;3.58;;;6.20;99.90;;;;;;5452770;26;19999;-73
2024/04/20 00:08:22;;;;;;;4.47;2.03;;;6.20;99.90;;;;;;5452575;26;19995;-73
2024/04/20 00:10:49;;;;;;;5.20;4.10;;;6.10;99.90;;;;;;5455202;26;20421;-73
2024/04/20 00:13:16;;;;;;;3.35;1.83;;;6.10;99.90;;;;;;5422374;26;20067;-73
2024/04/20 00:15:44;;;;;;;4.32;2.60;;;6.00;99.90;;;;;;5454354;26;20011;-73
2024/04/20 00:18:11;;;;;;;7.07;3.58;;;6.00;99.90;;;;;;5422401;26;20031;-73
2024/04/20 00:20:39;;;;;;;5.07;3.85;;;5.90;99.90;;;;;;5452472;26;19999;-73
2024/04/20 00:23:06;;;;;;;7.38;6.78;;;5.90;99.90;;;;;;5482462;26;20071;-73
2024/04/20 00:25:37;;;;;;;7.57;3.92;;;5.90;99.90;;;;;;5454467;26;20003;-73
2024/04/20 00:28:05;;;;;;;5.07;3.55;;;5.80;99.90;;;;;;5453809;26;20003;-73
2024/04/20 00:30:33;;;;;;;4.07;3.45;;;5.80;99.90;;;;;;5454071;26;20339;-73
2024/04/20 00:33:00;;;;;;;3.55;3.22;;;5.70;99.90;;;;;;5454037;26;20013;-73
2024/04/20 00:35:27;;;;;;;6.10;3.35;;;5.70;99.90;;;;;;5452023;26;20007;-73
2024/04/20 00:37:54;;;;;;;4.80;2.55;;;5.70;99.90;;;;;;5452375;26;20444;-73
2024/04/20 00:40:21;;;;;;;4.57;4.07;;;5.60;99.90;;;;;;5452245;26;20044;-73
2024/04/20 00:42:48;;;;;;;3.60;2.92;;;5.60;99.90;;;;;;5452472;26;20067;-73
2024/04/20 00:45:15;;;;;;;3.60;3.03;;;5.60;99.90;;;;;;5451762;26;19998;-73
2024/04/20 00:47:42;;;;;;;4.22;2.80;;;5.50;99.90;;;;;;5453918;26;20063;-73
2024/04/20 00:50:10;;;;;;;3.05;2.67;;;5.50;99.90;;;;;;5452175;26;19995;-73
2024/04/20 00:52:37;;;;;;;2.42;1.90;;;5.50;99.90;;;;;;5452234;26;20071;-73
2024/04/20 00:55:05;;;;;;;8.25;6.03;;;5.40;99.90;;;;;;5453746;26;20337;-73
2024/04/20 00:57:32;;;;;;;2.53;2.33;;;5.40;99.90;;;;;;5452256;26;20017;-73
2024/04/20 00:59:59;;;;;;;4.35;3.08;;;5.40;99.90;;;;;;5482136;26;19999;-73
2024/04/20 01:02:28;;;;;;;4.75;4.45;;;5.40;99.90;;;;;;5451549;26;20003;-73
2024/04/20 01:04:56;;;;;;;6.80;4.32;;;5.40;99.90;;;;;;5453815;26;20034;-73
2024/04/20 01:07:23;;;;;;;5.57;5.07;;;5.40;99.90;;;;;;5451621;26;20056;-73
2024/04/20 01:09:50;;;;;;;6.40;3.25;;;5.30;99.90;;;;;;5453525;26;19999;-73
2024/04/20 01:12:17;;;;;;;5.70;2.92;;;5.20;99.90;;;;;;5451637;26;19999;-73
2024/04/20 01:14:44;;;;;;;6.95;4.72;;;5.10;99.90;;;;;;5451686;26;19995;-73
2024/04/20 01:17:12;;;;;;;3.90;3.40;;;5.00;99.90;;;;;;5453558;26;19995;-73
2024/04/20 01:19:39;;;;;;;3.65;3.35;;;5.00;99.90;;;;;;5452262;26;20454;-73
2024/04/20 01:22:07;;;;;;;5.07;3.65;;;4.90;99.90;;;;;;5451989;26;19999;-74
2024/04/20 01:24:34;;;;;;;3.35;2.95;;;4.80;99.90;;;;;;5451814;26;20006;-73
2024/04/20 01:27:02;;;;;;;10.32;3.15;;;4.70;99.90;;;;;;5452040;26;20421;-73
2024/04/20 01:29:29;;;;;;;3.10;2.85;;;4.60;99.90;;;;;;5452513;26;20067;-74
2024/04/20 01:31:56;;;;;;;4.22;3.20;;;4.60;99.90;;;;;;5453104;26;20013;-73
2024/04/20 01:34:23;;;;;;;4.35;4.03;;;4.50;99.90;;;;;;5451241;26;19999;-73
2024/04/20 01:36:50;;;;;;;3.03;2.53;;;4.50;99.90;;;;;;5451343;26;19999;-73
2024/04/20 01:39:17;;;;;;;6.00;3.42;;;4.40;99.90;;;;;;5481328;26;20006;-73
2024/04/20 01:41:46;;;;;;;2.92;2.15;;;4.40;99.90;;;;;;5451244;26;20433;-73
2024/04/20 01:44:14;;;;;;;3.35;2.20;;;4.30;99.90;;;;;;5452756;26;20075;-73
2024/04/20 01:46:41;;;;;;;5.20;2.88;;;4.30;99.90;;;;;;5453126;26;20044;-73
2024/04/20 01:49:08;;;;;;;2.70;1.90;;;4.30;99.90;;;;;;5451414;26;20374;-74
2024/04/20 01:51:35;;;;;;;2.00;1.90;;;4.30;99.90;;;;;;5452712;26;20035;-73
2024/04/20 01:54:04;;;;;;;7.25;2.88;;;4.40;99.90;;;;;;5451458;26;20034;-73
2024/04/20 01:56:31;;;;;;;2.03;1.90;;;4.40;99.90;;;;;;5452975;26;19999;-73
2024/04/20 01:58:58;;;;;;;5.13;3.15;;;4.40;99.90;;;;;;5452772;26;20006;-73
2024/04/20 02:01:27;;;;;;;6.10;3.58;;;4.30;99.90;;;;;;5451274;26;19999;-73
2024/04/20 02:03:54;;;;;;;2.75;2.55;;;4.30;99.90;;;;;;5452868;26;20324;-73
2024/04/20 02:06:21;;;;;;;3.95;2.20;;;4.30;99.90;;;;;;5452490;26;20006;-73
2024/04/20 02:08:48;;;;;;;3.95;3.17;;;4.30;99.90;;;;;;5451673;26;20003;-73
2024/04/20 02:11:15;;;;;;;4.70;3.95;;;4.30;99.90;;;;;;5450627;26;19999;-73
2024/04/20 02:13:42;;;;;;;4.80;2.95;;;4.60;99.90;;;;;;5450794;26;20006;-73
2024/04/20 02:16:09;;;;;;;4.43;3.30;;;4.40;99.90;;;;;;5450954;26;20035;-73
2024/04/20 02:18:36;;;;;;;7.63;3.45;;;4.60;99.90;;;;;;5452182;26;20031;-73
2024/04/20 02:21:04;;;;;;;6.03;4.05;;;4.60;99.90;;;;;;5452440;26;20003;-73
2024/04/20 02:23:31;;;;;;;5.45;3.30;;;4.70;99.90;;;;;;5450327;26;20007;-73
2024/04/20 02:25:58;;;;;;;4.85;2.25;;;4.80;99.90;;;;;;5452420;26;20005;-73
2024/04/20 02:28:25;;;;;;;5.32;4.35;;;4.80;99.90;;;;;;5452082;26;20013;-73
2024/04/20 02:30:52;;;;;;;2.60;2.38;;;4.90;99.90;;;;;;5450514;26;19999;-73
2024/04/20 02:33:20;;;;;;;7.20;3.35;;;5.00;99.90;;;;;;5450416;26;19999;-72
2024/04/20 02:35:47;;;;;;;6.07;3.58;;;5.20;99.90;;;;;;5452632;26;20006;-72
2024/04/20 02:38:14;;;;;;;3.40;3.10;;;5.30;99.90;;;;;;5450375;26;20045;-73
2024/04/20 02:40:41;;;;;;;6.75;4.22;;;5.40;99.90;;;;;;5451815;26;19999;-73
2024/04/20 02:43:08;;;;;;;6.93;4.80;;;5.50;99.90;;;;;;5455761;26;19995;-73
2024/04/20 02:45:35;;;;;;;7.35;3.55;;;5.60;99.90;;;;;;5455459;26;19995;-73
2024/04/20 02:48:02;;;;;;;3.85;2.00;;;5.70;99.90;;;;;;5453669;26;19995;-73
2024/04/20 02:50:29;;;;;;;3.22;2.67;;;5.80;99.90;;;;;;5455225;26;20003;-73
2024/04/20 02:52:56;;;;;;;3.30;2.22;;;5.90;99.90;;;;;;5424054;26;19999;-73
2024/04/20 02:55:23;;;;;;;2.90;2.58;;;5.90;99.90;;;;;;5455157;26;20011;-73
2024/04/20 02:57:51;;;;;;;2.63;2.53;;;6.00;99.90;;;;;;5453727;26;19999;-73
2024/04/20 03:00:18;;;;;;;2.67;2.58;;;6.00;99.90;;;;;;5483388;26;20003;-73
2024/04/20 03:02:45;;;;;;;4.60;4.35;;;6.10;99.90;;;;;;5457706;26;20408;-73
2024/04/20 03:05:12;;;;;;;5.38;2.78;;;6.10;99.90;;;;;;5475135;26;20017;-73
2024/04/20 03:07:39;;;;;;;3.70;3.50;;;6.10;99.90;;;;;;5485012;26;20003;-72
2024/04/20 03:10:07;;;;;;;2.58;2.47;;;6.20;99.90;;;;;;5483695;26;19999;-72
2024/04/20 03:12:34;;;;;;;3.58;3.22;;;6.20;99.90;;;;;;5454982;26;20017;-72
2024/04/20 03:15:01;;;;;;;3.35;3.15;;;6.20;99.90;;;;;;5453610;26;20001;-72
2024/04/20 03:17:28;;;;;;;2.53;2.42;;;6.20;99.90;;;;;;5455246;26;20007;-73
2024/04/20 03:19:55;;;;;;;4.20;2.88;;;6.20;99.90;;;;;;5453401;26;20023;-72
2024/04/20 03:22:22;;;;;;;4.68;4.38;;;6.20;99.90;;;;;;5455245;26;20318;-72
2024/04/20 03:24:49;;;;;;;3.72;3.42;;;6.20;99.90;;;;;;5453504;26;19995;-73
2024/04/20 03:27:16;;;;;;;2.97;2.70;;;6.20;99.90;;;;;;5483684;26;20013;-72
2024/04/20 03:29:43;;;;;;;8.30;7.85;;;6.20;99.90;;;;;;5454716;26;19999;-73
2024/04/20 03:32:10;;;;;;;3.63;3.33;;;6.20;99.90;;;;;;5453172;26;20056;-73
2024/04/20 03:34:37;;;;;;;4.75;2.05;;;6.20;99.90;;;;;;5452755;26;20005;-73
2024/04/20 03:37:19;;;;;;;8.52;3.38;;;6.20;99.90;;;;;;5453280;26;20076;-73
2024/04/20 03:39:46;;;;;;;3.30;2.95;;;6.20;99.90;;;;;;5454499;26;20445;-73
2024/04/20 03:42:14;;;;;;;3.97;3.20;;;6.20;99.90;;;;;;5453136;26;20010;-73
2024/04/20 03:44:42;;;;;;;4.57;2.30;;;6.30;99.90;;;;;;5454664;26;20003;-73
2024/04/20 03:47:09;;;;;;;5.20;3.13;;;6.30;99.90;;;;;;5453046;26;20010;-73
2024/04/20 03:49:36;;;;;;;4.65;2.92;;;6.30;99.90;;;;;;5482998;26;20007;-73
2024/04/20 03:52:04;;;;;;;4.85;2.75;;;6.30;99.90;;;;;;5454483;26;20068;-73
2024/04/20 03:54:31;;;;;;;6.13;2.38;;;6.20;99.90;;;;;;5483037;26;19995;-73
2024/04/20 03:56:58;;;;;;;2.75;2.55;;;6.10;99.90;;;;;;5423061;26;19999;-73
2024/04/20 03:59:25;;;;;;;3.83;3.50;;;5.90;99.90;;;;;;5452607;26;19995;-73
2024/04/20 04:01:52;;;;;;;4.65;4.38;;;5.80;99.90;;;;;;5452951;26;20002;-73
2024/04/20 04:04:19;;;;;;;6.18;4.05;;;5.70;99.90;;;;;;5453078;26;20517;-73
2024/04/20 04:06:46;;;;;;;3.90;3.40;;;5.50;99.90;;;;;;5452473;26;20010;-73
2024/04/20 04:09:14;;;;;;;3.63;3.30;;;5.70;99.90;;;;;;5454416;26;20010;-73
2024/04/20 04:11:43;;;;;;;3.85;3.53;;;5.50;99.90;;;;;;5454164;26;20071;-73
2024/04/20 04:14:10;;;;;;;3.63;3.42;;;5.60;99.90;;;;;;5452543;26;20013;-73
2024/04/20 04:16:37;;;;;;;4.15;3.63;;;5.60;99.90;;;;;;5452236;26;19999;-73
2024/04/20 04:19:04;;;;;;;3.50;3.20;;;5.60;99.90;;;;;;5452378;26;20344;-73
2024/04/20 04:21:33;;;;;;;4.85;1.80;;;5.70;99.90;;;;;;5454223;26;20010;-73
2024/04/20 04:24:00;;;;;;;4.72;4.35;;;5.70;99.90;;;;;;5454241;26;19999;-73
2024/04/20 04:26:27;;;;;;;4.88;4.10;;;5.70;99.90;;;;;;5422611;26;20018;-73
2024/04/20 04:28:54;;;;;;;6.70;3.97;;;5.70;99.90;;;;;;5453874;26;20005;-73
2024/04/20 04:31:25;;;;;;;4.93;4.53;;;5.70;99.90;;;;;;5452338;26;20076;-73
2024/04/20 04:33:52;;;;;;;3.95;3.75;;;5.80;99.90;;;;;;5454145;26;20003;-73
2024/04/20 04:36:19;;;;;;;4.50;3.38;;;5.80;99.90;;;;;;5452460;26;20018;-72
2024/04/20 04:38:46;;;;;;;2.72;2.05;;;5.80;99.90;;;;;;5451857;26;20081;-73
2024/04/20 04:41:13;;;;;;;3.97;3.38;;;5.90;99.90;;;;;;5482614;26;20068;-72
2024/04/20 04:43:40;;;;;;;3.83;3.58;;;6.00;99.90;;;;;;5452176;26;20067;-73
2024/04/20 04:46:07;;;;;;;3.25;2.95;;;6.00;99.90;;;;;;5452483;26;20075;-73
2024/04/20 04:48:34;;;;;;;3.90;3.05;;;6.00;99.90;;;;;;5453678;26;20027;-73
2024/04/20 04:51:02;;;;;;;2.72;2.38;;;6.10;99.90;;;;;;5453735;26;20451;-73
2024/04/20 04:53:29;;;;;;;2.85;2.67;;;6.10;99.90;;;;;;5453726;26;19999;-73
2024/04/20 04:55:56;;;;;;;5.28;4.97;;;6.20;99.90;;;;;;5453512;26;19999;-72
2024/04/20 04:58:23;;;;;;;3.65;3.42;;;6.20;99.90;;;;;;5422045;26;20071;-72
2024/04/20 05:00:50;;;;;;;5.15;4.75;;;6.30;99.90;;;;;;5454389;26;20021;-73
2024/04/20 05:03:17;;;;;;;3.72;3.47;;;6.30;99.90;;;;;;5454936;26;20010;-73
2024/04/20 05:05:51;;;;;;;5.18;4.85;;;6.50;99.90;;;;;;5448770;26;20452;-72
2024/04/20 05:08:18;;;;;;;2.60;2.22;;;6.40;99.90;;;;;;5453322;26;20003;-73
2024/04/20 05:10:45;;;;;;;4.35;3.50;;;6.40;99.90;;;;;;5451578;26;20003;-73
2024/04/20 05:13:12;;;;;;;4.95;4.07;;;6.40;99.90;;;;;;5451698;26;20010;-73
2024/04/20 05:15:40;;;;;;;2.20;1.98;;;6.50;99.90;;;;;;5451419;26;19998;-73
2024/04/20 05:18:07;;;;;;;2.22;2.13;;;6.50;99.90;;;;;;5451304;26;20009;-73
2024/04/20 05:20:35;;;;;;;3.08;1.80;;;6.50;99.90;;;;;;5451702;26;20011;-73
2024/04/20 05:23:03;;;;;;;3.55;3.35;;;6.50;99.90;;;;;;5451910;26;19994;-73
2024/04/20 05:25:30;;;;;;;3.35;3.15;;;6.60;99.90;;;;;;5451791;26;20041;-73
2024/04/20 05:27:58;;;;;;;3.22;3.00;;;6.60;99.90;;;;;;5451518;26;20027;-73
2024/04/20 05:30:25;;;;;;;3.05;2.85;;;6.70;99.90;;;;;;5451652;26;20006;-73
2024/04/20 05:32:55;;;;;;;3.75;3.55;;;6.80;99.90;;;;;;5451223;26;19998;-73
2024/04/20 05:35:22;;;;;;;2.67;2.45;;;6.90;99.90;;;;;;5451421;26;20418;-72
2024/04/20 05:37:49;;;;;;;3.38;3.08;;;7.00;99.90;;;;;;5452833;26;19999;-73
2024/04/20 05:40:17;;;;;;;3.20;3.00;;;7.00;99.90;;;;;;5453000;26;20014;-72
2024/04/20 05:42:44;;;;;;;4.10;3.90;;;7.00;99.90;;;;;;5451047;26;20011;-73
2024/04/20 05:45:15;;;;;;;2.38;2.17;;;7.10;99.90;;;;;;5451362;26;20014;-73
2024/04/20 05:47:42;;;;;;;6.15;1.85;;;7.10;99.90;;;;;;5451380;26;20007;-73
2024/04/20 05:50:09;;;;;;;2.65;2.45;;;7.30;99.90;;;;;;5451331;26;20393;-73
2024/04/20 05:52:36;;;;;;;4.15;3.85;;;7.10;99.90;;;;;;5453330;26;20006;-73
2024/04/20 05:55:04;;;;;;;1.95;1.85;;;7.10;99.90;;;;;;5452783;26;19995;-72
2024/04/20 05:57:32;;;;;;;2.78;2.63;;;7.20;99.90;;;;;;5452946;26;20074;-73
2024/04/20 05:59:59;;;;;;;2.75;2.60;;;7.20;99.90;;;;;;5450955;26;19995;-73
2024/04/20 06:02:27;;;;;;;2.08;1.98;;;7.20;99.90;;;;;;5452995;26;20042;-72
2024/04/20 06:04:57;;;;;;;4.43;2.20;;;7.30;99.90;;;;;;5488044;26;20199;-73
2024/04/20 06:07:24;;;;;;;2.65;2.45;;;7.30;99.90;;;;;;5488038;26;20010;-73
2024/04/20 06:09:52;;;;;;;3.63;3.45;;;7.40;99.90;;;;;;5488650;26;19998;-72
2024/04/20 06:12:19;;;;;;;3.67;3.38;;;7.50;99.90;;;;;;5487472;26;20006;-72
2024/04/20 06:14:46;;;;;;;5.18;2.85;;;7.60;99.90;;;;;;5488915;26;20078;-72
2024/04/20 06:17:13;;;;;;;3.13;2.78;;;7.70;99.90;;;;;;5488737;26;20432;-73
2024/04/20 06:19:40;;;;;;;2.85;2.65;;;7.90;99.90;;;;;;5488750;26;20069;-73
2024/04/20 06:22:08;;;;;;;2.80;2.55;;;7.90;99.90;;;;;;5488533;26;20439;-73
2024/04/20 06:24:40;;;;;;;2.15;1.65;;;8.00;99.90;;;;;;5457101;26;20008;-73
2024/04/20 06:27:07;;;;;;;1.70;1.20;;;7.90;99.90;;;;;;5486399;26;20004;-72
2024/04/20 06:29:35;;;;;;;2.47;2.38;;;7.90;99.90;;;;;;5488831;26;20444;-72
2024/04/20 06:32:02;;;;;;;1.85;1.75;;;7.90;99.90;;;;;;5486816;26;20070;-73
2024/04/20 06:34:29;;;;;;;2.38;2.17;;;7.90;99.90;;;;;;5488992;26;19994;-73
2024/04/20 06:36:56;;;;;;;2.33;2.22;;;7.80;99.90;;;;;;5486609;26;20002;-73
2024/04/20 06:39:23;;;;;;;2.17;2.08;;;7.90;99.90;;;;;;5488494;26;20467;-72
2024/04/20 06:41:54;;;;;;;2.15;1.20;;;7.90;99.90;;;;;;5486790;26;20087;-73
2024/04/20 06:44:21;;;;;;;2.72;2.53;;;7.90;99.90;;;;;;5488939;26;20006;-72
2024/04/20 06:46:48;;;;;;;2.50;1.48;;;8.10;99.90;;;;;;5486555;26;20055;-73
2024/04/20 06:49:15;;;;;;;2.58;2.38;;;8.10;99.90;;;;;;5456109;26;20006;-73
2024/04/20 06:51:43;;;;;;;1.90;1.80;;;8.20;99.90;;;;;;5486467;26;20074;-73
2024/04/20 06:54:10;;;;;;;2.53;2.25;;;8.30;99.90;;;;;;5487942;26;19998;-72
2024/04/20 06:56:37;;;;;;;3.13;2.70;;;8.30;99.90;;;;;;5486241;26;19998;-72
2024/04/20 06:59:04;;;;;;;4.80;2.70;;;8.50;99.90;;;;;;5486097;26;20083;-72
2024/04/20 07:01:31;;;;;;;2.35;1.83;;;8.70;99.90;;;;;;5488281;26;19998;-73
2024/04/20 07:03:58;;;;;;;4.60;1.15;;;8.80;99.90;;;;;;5487753;26;19998;-73
2024/04/20 07:06:25;;;;;;;2.08;1.35;;;8.90;99.90;;;;;;5486021;26;20566;-73
2024/04/20 07:08:52;;;;;;;2.63;1.85;;;8.90;99.90;;;;;;5488404;26;19994;-73
2024/04/20 07:11:19;;;;;;;2.28;2.03;;;8.80;99.90;;;;;;5486281;26;20001;-73
2024/04/20 07:13:47;;;;;;;2.38;2.28;;;8.70;99.90;;;;;;5488316;26;20008;-73
2024/04/20 07:16:14;;;;;;;3.60;2.28;;;8.60;99.90;;;;;;5487848;26;20466;-73
2024/04/20 07:18:44;;;;;;;2.13;2.03;;;8.60;99.90;;;;;;5486288;26;19994;-73
2024/04/20 07:21:11;;;;;;;1.52;1.42;;;8.60;99.90;;;;;;5487891;26;20005;-73
2024/04/20 07:23:38;;;;;;;2.30;2.20;;;8.50;99.90;;;;;;5486261;26;19998;-72
2024/04/20 07:26:06;;;;;;;3.13;2.83;;;8.50;99.90;;;;;;5487208;26;20002;-73
2024/04/20 07:28:34;;;;;;;3.60;2.72;;;8.60;99.90;;;;;;5488538;26;20010;-73
2024/04/20 07:31:01;;;;;;;4.00;3.33;;;8.60;99.90;;;;;;5491008;26;20009;-72
2024/04/20 07:33:28;;;;;;;5.25;4.88;;;8.80;99.90;;;;;;5491211;26;20458;-73
2024/04/20 07:35:56;;;;;;;3.55;3.35;;;9.00;99.90;;;;;;5489439;26;20353;-73
2024/04/20 07:38:23;;;;;;;3.95;2.83;;;9.20;99.90;;;;;;5489314;26;20082;-73
2024/04/20 07:40:51;;;;;;;2.75;2.65;;;9.40;99.90;;;;;;5489460;26;20071;-73
2024/04/20 07:43:18;;;;;;;3.50;2.92;;;9.60;99.90;;;;;;5488956;26;20515;-73
2024/04/20 07:45:45;;;;;;;5.40;2.65;;;9.70;99.90;;;;;;5491132;26;19998;-73
2024/04/20 07:48:12;;;;;;;2.35;2.25;;;9.90;99.90;;;;;;5490929;26;19994;-73
2024/04/20 07:50:39;;;;;;;2.45;1.92;;;9.90;99.90;;;;;;5489522;26;19994;-74
2024/04/20 07:53:06;;;;;;;4.00;3.78;;;9.70;99.90;;;;;;5491211;26;20005;-74
2024/04/20 07:55:33;;;;;;;2.53;2.33;;;9.60;99.90;;;;;;5491269;26;20037;-74
2024/04/20 07:58:02;;;;;;;3.10;2.78;;;9.50;99.90;;;;;;5490950;26;20002;-73
2024/04/20 08:00:30;;;;;;;3.45;3.17;;;9.40;99.90;;;;;;5490967;26;19994;-74
2024/04/20 08:02:57;;;;;;;2.10;1.88;;;9.30;99.90;;;;;;5459238;26;20417;-74
2024/04/20 08:05:24;;;;;;;2.50;2.33;;;9.30;99.90;;;;;;5490396;26;20042;-74
2024/04/20 08:07:51;;;;;;;3.25;2.97;;;9.20;99.90;;;;;;5488926;26;19998;-74
2024/04/20 08:10:18;;;;;;;2.22;1.85;;;9.20;99.90;;;;;;5488625;26;20323;-73
2024/04/20 08:12:45;;;;;;;3.08;2.85;;;9.20;99.90;;;;;;5489109;26;20055;-73
2024/04/20 08:15:12;;;;;;;3.38;2.53;;;9.20;99.90;;;;;;5490410;26;19998;-73
2024/04/20 08:17:39;;;;;;;4.32;1.80;;;9.20;99.90;;;;;;5458722;26;20006;-73
2024/04/20 08:20:07;;;;;;;4.05;1.52;;;9.20;99.90;;;;;;5488441;26;19998;-73
2024/04/20 08:22:34;;;;;;;4.28;0.85;;;9.30;99.90;;;;;;5490530;26;20476;-73
2024/04/20 08:25:01;;;;;;;3.40;3.20;;;9.50;99.90;;;;;;5490259;26;20002;-72
2024/04/20 08:27:30;;;;;;;7.00;2.15;;;9.70;99.90;;;;;;5489179;26;19994;-72
2024/04/20 08:29:57;;;;;;;1.45;1.35;;;10.00;99.90;;;;;;5490508;26;20352;-72
2024/04/20 08:32:24;;;;;;;3.83;2.38;;;10.50;99.90;;;;;;5490107;26;20022;-72
2024/04/20 08:34:51;;;;;;;2.03;1.52;;;11.30;99.90;;;;;;5490341;26;20335;-72
2024/04/20 08:37:19;;;;;;;3.35;2.50;;;12.10;99.90;;;;;;5458607;26;20003;-73
2024/04/20 08:39:47;;;;;;;2.55;1.50;;;13.10;99.90;;;;;;5490276;26;20029;-73
2024/04/20 08:42:20;;;;;;;3.22;2.00;;;13.90;98.00;;;;;;5490561;26;20026;-73
2024/04/20 08:44:49;;;;;;;4.68;1.75;;;14.70;96.40;;;;;;5490274;26;20038;-74
2024/04/20 08:47:18;;;;;;;2.22;1.67;;;15.40;95.40;;;;;;5490003;26;20010;-74
2024/04/20 08:49:48;;;;;;;3.10;2.30;;;16.20;95.40;;;;;;5490125;26;20002;-74
2024/04/20 08:52:16;;;;;;;3.08;2.78;;;16.70;92.80;;;;;;5489572;26;20001;-74
2024/04/20 08:54:45;;;;;;;4.50;2.25;;;16.80;92.40;;;;;;5488517;26;20009;-74
2024/04/20 08:57:15;;;;;;;2.22;1.50;;;16.50;90.70;;;;;;5458325;26;20051;-75
2024/04/20 08:59:42;;;;;;;3.55;1.77;;;16.40;91.00;;;;;;5488332;26;20005;-75
2024/04/20 09:02:17;;;;;;;2.95;1.52;;;16.50;88.40;;;;;;5487911;26;19998;-75
2024/04/20 09:04:45;;;;;;;3.38;1.38;;;16.80;88.50;;;;;;5469371;26;20003;-75
2024/04/20 09:07:14;;;;;;;4.65;1.67;;;17.30;85.70;;;;;;5450933;26;19999;-74
2024/04/20 09:09:42;;;;;;;1.30;0.85;;;17.40;82.50;;;;;;5421825;26;19994;-74
2024/04/20 09:12:09;;;;;;;4.10;1.40;;;17.00;81.40;;;;;;5453373;26;20410;-74
2024/04/20 09:14:36;;;;;;;1.40;1.00;;;15.80;82.80;;;;;;5453478;26;20034;-74
2024/04/20 09:17:03;;;;;;;2.45;1.63;;;14.40;86.10;;;;;;5453403;26;20013;-74
2024/04/20 09:19:30;;;;;;;2.63;2.42;;;13.30;89.00;;;;;;5453238;26;19999;-74
2024/04/20 09:22:09;;;;;;;3.10;2.80;;;12.60;90.60;;;;;;5422536;26;19995;-73
2024/04/20 09:24:36;;;;;;;2.42;2.22;;;12.40;91.70;;;;;;5453271;26;19999;-73
2024/04/20 09:27:05;;;;;;;2.83;2.63;;;12.60;91.70;;;;;;5453413;26;20035;-74
2024/04/20 09:29:32;;;;;;;1.77;1.75;;;12.90;92.30;;;;;;5451318;26;20030;-74
2024/04/20 09:31:59;;;;;;;3.47;1.70;;;13.90;92.60;;;;;;5453325;26;20011;-73
2024/04/20 09:34:26;;;;;;;2.25;2.03;;;15.10;91.20;;;;;;5421335;26;20336;-73
2024/04/20 09:36:54;;;;;;;2.80;1.75;;;15.80;89.90;;;;;;5453123;26;19999;-73
2024/04/20 09:39:21;;;;;;;4.00;1.27;;;16.60;88.80;;;;;;5421647;26;20393;-72
2024/04/20 09:41:50;;;;;;;5.78;1.88;;;17.30;84.70;;;;;;5453144;26;20445;-73
2024/04/20 09:44:18;;;;;;;3.55;1.25;;;18.00;83.80;;;;;;5452756;26;20002;-73
2024/04/20 09:46:50;;;;;;;3.53;1.10;;;18.80;83.90;;;;;;5451840;26;19999;-73
2024/04/20 09:49:17;;;;;;;3.35;1.52;;;19.40;80.90;;;;;;5451346;26;20313;-73
2024/04/20 09:52:00;;;;;;;3.10;1.25;;;19.30;79.20;;;;;;5452518;26;20006;-73
2024/04/20 09:54:31;;;;;;;3.35;1.17;;;18.60;79.20;;;;;;5452623;26;20003;-73
2024/04/20 09:57:00;;;;;;;4.07;1.95;;;18.30;79.60;;;;;;5453255;26;20011;-73
2024/04/20 09:59:28;;;;;;;0.98;0.75;;;18.30;78.30;;;;;;5450632;26;20328;-73
2024/04/20 10:01:56;;;;;;;2.42;1.08;;;18.30;78.50;;;;;;5421723;26;20328;-73
2024/04/20 10:04:26;;;;;;;2.35;1.50;;;18.80;79.20;;;;;;5452454;26;20011;-73
2024/04/20 10:06:54;;;;;;;2.97;0.80;;;19.20;77.80;;;;;;5452769;26;20322;-74
2024/04/20 10:09:22;;;;;;;3.20;1.83;;;19.10;77.20;;;;;;5452457;26;20075;-74
2024/04/20 10:11:51;;;;;;;3.00;2.03;;;18.80;77.50;;;;;;5452624;26;20010;-73
2024/04/20 10:14:18;;;;;;;2.28;1.38;;;18.30;78.00;;;;;;5420725;26;20006;-73
2024/04/20 10:16:45;;;;;;;3.47;1.60;;;17.80;77.80;;;;;;5452697;26;20010;-74
2024/04/20 10:19:17;;;;;;;3.10;1.75;;;17.60;78.60;;;;;;5451001;26;20013;-73
2024/04/20 10:21:44;;;;;;;3.42;1.08;;;17.70;78.80;;;;;;5450876;26;20003;-73
2024/04/20 10:24:12;;;;;;;2.55;2.05;;;18.00;78.40;;;;;;5452656;26;20348;-73
2024/04/20 10:26:44;;;;;;;2.10;0.98;;;18.10;77.40;;;;;;5450536;26;19995;-74
2024/04/20 10:29:20;;;;;;;1.83;1.73;;;18.50;78.00;;;;;;5452911;26;20011;-74
2024/04/20 10:31:57;;;;;;;1.33;1.20;;;18.60;76.00;;;;;;5450923;26;20003;-73
2024/04/20 10:34:28;;;;;;;2.33;2.05;;;18.40;76.10;;;;;;5450702;26;19999;-74
2024/04/20 10:36:59;;;;;;;2.67;1.63;;;18.10;76.70;;;;;;5452717;26;20002;-74
2024/04/20 10:39:27;;;;;;;2.58;2.38;;;17.80;76.40;;;;;;5451942;26;20075;-73
2024/04/20 10:42:05;;;;;;;1.75;1.30;;;17.40;76.20;;;;;;5420625;26;19999;-73
2024/04/20 10:44:32;;;;;;;3.65;1.50;;;16.90;78.00;;;;;;5450274;26;20003;-73
2024/04/20 10:46:59;;;;;;;3.60;1.55;;;17.20;79.50;;;;;;5452009;26;20011;-74
2024/04/20 10:49:26;;;;;;;2.38;2.28;;;18.00;78.70;;;;;;5449916;26;20014;-74
2024/04/20 10:51:55;;;;;;;1.90;1.20;;;18.70;77.30;;;;;;5450208;26;20043;-74
2024/04/20 10:54:23;;;;;;;2.72;1.05;;;19.40;75.70;;;;;;5450032;26;20010;-74
2024/04/20 10:56:54;;;;;;;3.08;0.75;;;19.70;74.50;;;;;;5450063;26;20398;-74
2024/04/20 10:59:22;;;;;;;6.57;2.13;;;19.50;73.80;;;;;;5450135;26;20010;-73
2024/04/20 11:01:49;;;;;;;2.50;1.83;;;18.50;73.60;;;;;;5451871;26;20003;-72
2024/04/20 11:04:18;;;;;;;2.13;1.40;;;16.90;75.90;;;;;;5453799;26;19995;-73
2024/04/20 11:06:46;;;;;;;3.40;2.97;;;15.50;78.40;;;;;;5453689;26;20035;-73
2024/04/20 11:09:13;;;;;;;8.30;2.22;;;14.50;80.90;;;;;;5453874;26;20006;-73
2024/04/20 11:11:41;;;;;;;4.45;1.50;;;13.90;82.90;;;;;;5423539;26;20634;-72
2024/04/20 11:14:08;;;;;;;1.63;1.52;;;13.70;83.70;;;;;;5455276;26;20069;-72
2024/04/20 11:16:35;;;;;;;1.75;1.45;;;13.70;84.20;;;;;;5455043;26;19995;-72
2024/04/20 11:19:02;;;;;;;2.15;1.65;;;14.20;83.70;;;;;;5455259;26;20006;-72
2024/04/20 11:21:30;;;;;;;2.05;1.55;;;15.20;82.50;;;;;;5454641;26;19999;-72
2024/04/20 11:23:58;;;;;;;3.53;2.33;;;16.20;81.00;;;;;;5455043;26;20417;-72
2024/04/20 11:26:27;;;;;;;3.85;1.60;;;16.70;79.20;;;;;;5423413;26;20006;-73
2024/04/20 11:28:54;;;;;;;5.35;2.03;;;16.60;79.80;;;;;;5423784;26;19999;-73
2024/04/20 11:31:21;;;;;;;3.60;1.15;;;17.00;78.90;;;;;;5453235;26;20003;-73
2024/04/20 11:33:48;;;;;;;1.20;0.90;;;17.50;78.80;;;;;;5452750;26;20014;-73
2024/04/20 11:36:16;;;;;;;1.77;1.52;;;17.80;78.60;;;;;;5423339;26;20459;-73
2024/04/20 11:38:45;;;;;;;1.90;1.80;;;18.00;77.00;;;;;;5454334;26;20075;-73
2024/04/20 11:41:24;;;;;;;1.08;1.02;;;18.30;76.20;;;;;;5480830;26;20416;-73
2024/04/20 11:44:01;;;;;;;3.10;0.85;;;18.90;76.00;;;;;;5476899;26;20009;-73
2024/04/20 11:46:28;;;;;;;1.33;1.02;;;19.60;74.50;;;;;;5460126;26;19998;-74
2024/04/20 11:48:56;;;;;;;1.70;1.60;;;20.10;73.80;;;;;;5462331;26;20337;-73
2024/04/20 11:54:18;;;;;;;1.05;1.05;;;20.40;73.40;;;;;;5483328;26;20003;-74
2024/04/20 11:54:18;;;;;;;1.30;1.23;;;20.70;72.30;;;;;;5472852;26;20003;-74
2024/04/20 11:56:45;;;;;;;1.60;1.17;;;21.30;70.90;;;;;;5482830;26;19998;-74
2024/04/20 11:59:13;;;;;;;1.95;0.93;;;21.50;69.20;;;;;;5481609;26;19998;-74
2024/04/20 12:01:42;;;;;;;0.80;0.80;;;21.00;69.40;;;;;;5487488;26;20119;-73
2024/04/20 12:04:11;;;;;;;1.20;1.08;;;20.10;69.70;;;;;;5482312;26;20014;-73
2024/04/20 12:06:39;;;;;;;1.23;0.75;;;19.10;70.70;;;;;;5459313;26;20398;-74
2024/04/20 12:09:06;;;;;;;3.03;1.13;;;18.10;71.50;;;;;;5479101;26;20337;-74
2024/04/20 12:11:34;;;;;;;2.60;1.98;;;17.40;72.50;;;;;;5438737;26;20012;-73
2024/04/20 12:14:01;;;;;;;2.08;1.05;;;16.70;73.90;;;;;;5482073;26;20011;-74
2024/04/20 12:16:28;;;;;;;1.40;1.30;;;16.20;75.40;;;;;;5482150;26;19998;-74
2024/04/20 12:18:55;;;;;;;1.85;1.02;;;16.00;76.20;;;;;;5459718;26;20002;-73
2024/04/20 12:21:22;;;;;;;1.15;1.05;;;15.90;76.10;;;;;;5475349;26;20002;-73
2024/04/20 12:23:49;;;;;;;2.30;2.10;;;15.70;75.80;;;;;;5437152;26;19999;-74
2024/04/20 12:26:16;;;;;;;2.33;1.52;;;15.40;75.80;;;;;;5453885;26;20013;-73
2024/04/20 12:28:43;;;;;;;2.05;1.00;;;15.10;76.10;;;;;;5420166;26;20006;-73
2024/04/20 12:31:11;;;;;;;2.55;1.77;;;14.80;78.20;;;;;;5452042;26;20451;-73
2024/04/20 12:33:38;;;;;;;2.35;1.60;;;14.30;80.20;;;;;;5453467;26;20011;-73
2024/04/20 12:36:15;;;;;;;4.85;1.77;;;13.90;81.80;;;;;;5454054;26;19999;-73
2024/04/20 12:38:42;;;;;;;1.95;1.23;;;13.40;82.80;;;;;;5453847;26;20014;-73
2024/04/20 12:41:09;;;;;;;3.20;2.85;;;13.50;83.60;;;;;;5402053;26;19999;-73
2024/04/20 12:43:36;;;;;;;6.53;2.33;;;14.30;83.00;;;;;;5463010;26;20071;-73
2024/04/20 12:46:04;;;;;;;1.52;1.42;;;15.30;81.40;;;;;;5477990;26;20035;-73
2024/04/20 12:48:31;;;;;;;1.90;1.25;;;16.40;79.30;;;;;;5482228;26;20007;-74
2024/04/20 12:50:58;;;;;;;2.75;1.55;;;17.10;77.20;;;;;;5453327;26;20007;-73
2024/04/20 12:53:26;;;;;;;3.72;1.55;;;17.90;76.00;;;;;;5460218;26;20002;-74
2024/04/20 12:55:53;;;;;;;1.35;1.25;;;18.40;75.50;;;;;;5451408;26;20052;-73